createdAt,value
2023-05-11T00:02:23.260Z,13.90
2023-05-11T00:04:49.885Z,7.60
2023-05-11T00:07:16.495Z,7.30
2023-05-11T00:09:43.031Z,5.70
2023-05-11T00:12:09.539Z,7.80
2023-05-11T00:14:36.155Z,6.40
2023-05-11T00:17:02.718Z,7.10
2023-05-11T00:19:31.509Z,9.00
2023-05-11T00:21:59.039Z,5.10
2023-05-11T00:24:26.390Z,7.60
2023-05-11T00:26:52.942Z,6.30
2023-05-11T00:29:20.020Z,6.80
2023-05-11T00:31:48.184Z,7.20
2023-05-11T00:34:15.931Z,5.40
2023-05-11T00:36:43.148Z,7.40
2023-05-11T00:39:10.463Z,10.90
2023-05-11T00:41:37.010Z,4.90
2023-05-11T00:44:03.682Z,9.00
2023-05-11T00:46:31.261Z,6.30
2023-05-11T00:48:58.433Z,7.50
2023-05-11T00:51:24.988Z,6.70
2023-05-11T00:53:52.120Z,6.30
2023-05-11T00:56:20.065Z,7.40
2023-05-11T00:58:46.742Z,5.60
2023-05-11T01:01:14.883Z,7.20
2023-05-11T01:03:41.599Z,8.50
2023-05-11T01:06:44.635Z,6.90
2023-05-11T01:09:56.521Z,8.40
2023-05-11T01:12:55.953Z,5.00
2023-05-11T01:15:48.147Z,6.40
2023-05-11T01:18:33.644Z,4.90
2023-05-11T01:21:05.784Z,7.60
2023-05-11T01:23:51.104Z,5.20
2023-05-11T01:26:33.354Z,8.30
2023-05-11T01:29:38.066Z,5.30
2023-05-11T01:32:10.308Z,6.80
2023-05-11T01:34:40.518Z,5.40
2023-05-11T01:37:13.715Z,6.50
2023-05-11T01:39:50.772Z,5.60
2023-05-11T01:42:22.738Z,6.60
2023-05-11T01:44:53.480Z,6.90
2023-05-11T01:47:23.409Z,5.30
2023-05-11T01:49:51.679Z,6.80
2023-05-11T01:52:23.638Z,7.10
2023-05-11T01:54:52.955Z,7.30
2023-05-11T01:57:21.340Z,5.80
2023-05-11T01:59:50.264Z,7.10
2023-05-11T02:02:18.695Z,6.30
2023-05-11T02:04:46.893Z,7.10
2023-05-11T02:07:14.938Z,8.50
2023-05-11T02:09:43.066Z,6.80
2023-05-11T02:12:11.784Z,7.30
2023-05-11T02:14:39.600Z,7.30
2023-05-11T02:17:15.639Z,7.00
2023-05-11T02:19:44.279Z,9.40
2023-05-11T02:22:12.617Z,6.60
2023-05-11T02:24:40.074Z,5.10
2023-05-11T02:27:07.541Z,8.40
2023-05-11T02:29:34.489Z,8.60
2023-05-11T02:32:12.478Z,6.00
2023-05-11T02:34:41.993Z,5.10
2023-05-11T02:37:20.792Z,8.20
2023-05-11T02:39:52.835Z,10.10
2023-05-11T02:42:21.890Z,6.50
2023-05-11T02:45:03.721Z,7.40
2023-05-11T02:47:36.558Z,8.10
2023-05-11T02:50:08.752Z,9.30
2023-05-11T02:52:41.558Z,6.10
2023-05-11T02:55:09.386Z,10.00
2023-05-11T02:57:35.937Z,10.10
2023-05-11T03:00:05.456Z,7.70
2023-05-11T03:02:32.090Z,7.60
2023-05-11T03:04:58.808Z,7.20
2023-05-11T03:07:25.816Z,9.70
2023-05-11T03:09:52.889Z,6.60
2023-05-11T03:12:21.152Z,10.10
2023-05-11T03:14:48.486Z,7.50
2023-05-11T03:17:16.733Z,7.80
2023-05-11T03:19:43.689Z,8.70
2023-05-11T03:22:11.055Z,6.60
2023-05-11T03:24:38.495Z,6.90
2023-05-11T03:27:07.831Z,4.90
2023-05-11T03:29:38.353Z,8.30
2023-05-11T03:32:05.490Z,7.30
2023-05-11T03:34:33.949Z,8.30
2023-05-11T03:37:01.116Z,7.70
2023-05-11T03:39:31.183Z,6.90
2023-05-11T03:42:00.175Z,7.80
2023-05-11T03:44:28.841Z,7.60
2023-05-11T03:46:57.734Z,5.20
2023-05-11T03:49:25.527Z,6.60
2023-05-11T03:51:53.219Z,10.90
2023-05-11T03:54:20.607Z,11.70
2023-05-11T03:56:47.206Z,10.80
2023-05-11T03:59:17.342Z,10.30
2023-05-11T04:01:44.253Z,8.90
2023-05-11T04:04:11.988Z,8.80
2023-05-11T04:06:38.679Z,10.20
2023-05-11T04:09:16.922Z,8.00
2023-05-11T04:11:43.480Z,6.30
2023-05-11T04:14:09.978Z,8.40
2023-05-11T04:16:36.648Z,9.60
2023-05-11T04:19:03.253Z,8.40
2023-05-11T04:21:29.862Z,9.80
2023-05-11T04:23:56.621Z,6.10
2023-05-11T04:26:24.222Z,8.80
2023-05-11T04:28:50.768Z,10.90
2023-05-11T04:31:17.285Z,8.90
2023-05-11T04:33:43.873Z,7.80
2023-05-11T04:36:11.114Z,8.80
2023-05-11T04:38:38.334Z,8.30
2023-05-11T04:41:08.923Z,10.00
2023-05-11T04:43:36.399Z,12.70
2023-05-11T04:46:02.944Z,6.50
2023-05-11T04:48:30.138Z,7.60
2023-05-11T04:50:58.031Z,11.10
2023-05-11T04:53:28.612Z,10.40
2023-05-11T04:55:55.331Z,8.00
2023-05-11T04:58:21.941Z,9.20
2023-05-11T05:00:49.054Z,8.90
2023-05-11T05:03:15.695Z,17.20
2023-05-11T05:05:42.394Z,12.50
2023-05-11T05:08:09.925Z,10.90
2023-05-11T05:10:36.523Z,12.00
2023-05-11T05:13:03.086Z,12.10
2023-05-11T05:15:30.763Z,27.10
2023-05-11T05:17:58.056Z,15.30
2023-05-11T05:20:24.890Z,7.10
2023-05-11T05:22:51.869Z,14.00
2023-05-11T05:25:18.882Z,12.10
2023-05-11T05:27:45.887Z,7.30
2023-05-11T05:30:17.557Z,8.10
2023-05-11T05:32:44.341Z,6.90
2023-05-11T05:35:10.912Z,5.60
2023-05-11T05:37:37.850Z,10.30
2023-05-11T05:40:05.529Z,7.40
2023-05-11T05:42:33.916Z,6.30
2023-05-11T05:45:00.539Z,10.90
2023-05-11T05:47:27.150Z,5.50
2023-05-11T05:49:53.683Z,9.40
2023-05-11T05:52:20.309Z,4.60
2023-05-11T05:54:47.699Z,4.60
2023-05-11T05:57:15.811Z,4.90
2023-05-11T05:59:43.459Z,5.20
2023-05-11T06:02:11.644Z,7.90
2023-05-11T06:04:38.272Z,9.10
2023-05-11T06:07:04.864Z,6.90
2023-05-11T06:09:31.534Z,5.70
2023-05-11T06:11:58.133Z,9.80
2023-05-11T06:14:25.331Z,6.10
2023-05-11T06:16:53.501Z,6.30
2023-05-11T06:19:21.152Z,5.00
2023-05-11T06:21:48.530Z,4.20
2023-05-11T06:24:15.358Z,6.20
2023-05-11T06:26:43.092Z,4.40
2023-05-11T06:29:10.085Z,7.40
2023-05-11T06:31:37.003Z,8.60
2023-05-11T06:34:04.482Z,6.00
2023-05-11T06:36:32.254Z,5.30
2023-05-11T06:38:59.321Z,3.80
2023-05-11T06:41:26.757Z,6.70
2023-05-11T06:43:53.277Z,5.90
2023-05-11T06:46:27.568Z,4.00
2023-05-11T06:48:54.304Z,7.30
2023-05-11T06:51:21.961Z,3.40
2023-05-11T06:53:48.819Z,5.30
2023-05-11T06:56:15.893Z,4.90
2023-05-11T06:58:43.093Z,5.80
2023-05-11T07:01:11.418Z,7.90
2023-05-11T07:03:38.159Z,2.90
2023-05-11T07:06:05.108Z,3.90
2023-05-11T07:08:31.841Z,5.00
2023-05-11T07:10:58.420Z,6.60
2023-05-11T07:13:25.152Z,5.10
2023-05-11T07:15:52.003Z,5.90
2023-05-11T07:18:18.632Z,2.30
2023-05-11T07:20:49.948Z,7.50
2023-05-11T07:23:17.134Z,4.10
2023-05-11T07:25:43.892Z,4.80
2023-05-11T07:28:10.595Z,8.80
2023-05-11T07:30:38.476Z,3.10
2023-05-11T07:33:06.724Z,2.80
2023-05-11T07:35:33.784Z,5.60
2023-05-11T07:38:00.853Z,3.40
2023-05-11T07:40:28.721Z,2.90
2023-05-11T07:42:58.680Z,3.20
2023-05-11T07:45:26.473Z,4.80
2023-05-11T07:47:53.743Z,4.70
2023-05-11T07:50:24.463Z,5.20
2023-05-11T07:52:51.834Z,2.30
2023-05-11T07:55:20.652Z,2.70
2023-05-11T07:57:48.435Z,6.30
2023-05-11T08:00:15.670Z,7.30
2023-05-11T08:02:42.923Z,3.40
2023-05-11T08:05:09.863Z,5.70
2023-05-11T08:07:37.877Z,5.00
2023-05-11T08:10:06.970Z,5.10
2023-05-11T08:12:33.777Z,8.40
2023-05-11T08:15:00.342Z,7.90
2023-05-11T08:17:27.477Z,4.60
2023-05-11T08:19:54.408Z,8.10
2023-05-11T08:22:22.528Z,5.70
2023-05-11T08:24:50.874Z,7.00
2023-05-11T08:27:17.970Z,6.50
2023-05-11T08:29:45.178Z,4.50
2023-05-11T08:32:11.797Z,3.10
2023-05-11T08:34:38.702Z,3.10
2023-05-11T08:37:05.556Z,4.70
2023-05-11T08:39:46.590Z,5.20
2023-05-11T08:42:16.642Z,6.30
2023-05-11T08:44:44.672Z,5.40
2023-05-11T08:47:22.868Z,3.10
2023-05-11T08:49:51.785Z,2.70
2023-05-11T08:52:18.826Z,3.60
2023-05-11T08:54:46.382Z,3.10
2023-05-11T08:57:14.822Z,7.40
2023-05-11T08:59:44.540Z,7.20
2023-05-11T09:02:16.706Z,4.00
2023-05-11T09:04:46.866Z,4.30
2023-05-11T09:07:22.342Z,2.90
2023-05-11T09:09:49.030Z,6.40
2023-05-11T09:12:17.025Z,4.90
2023-05-11T09:14:44.542Z,6.70
2023-05-11T09:17:11.766Z,5.90
2023-05-11T09:19:57.717Z,4.80
2023-05-11T09:22:24.525Z,4.90
2023-05-11T09:24:51.413Z,7.20
2023-05-11T09:27:21.318Z,7.80
2023-05-11T09:29:51.835Z,4.10
2023-05-11T09:32:18.892Z,4.70
2023-05-11T09:34:45.916Z,4.40
2023-05-11T09:37:18.387Z,3.60
2023-05-11T09:40:13.995Z,2.30
2023-05-11T09:42:31.868Z,4.40
2023-05-11T09:44:58.622Z,3.10
2023-05-11T09:47:25.350Z,4.30
2023-05-11T09:49:52.044Z,2.90
2023-05-11T09:52:21.049Z,2.90
2023-05-11T09:54:51.151Z,2.50
2023-05-11T09:57:27.231Z,4.20
2023-05-11T09:59:56.554Z,4.90
2023-05-11T10:02:25.268Z,2.60
2023-05-11T10:04:54.853Z,8.90
2023-05-11T10:09:53.837Z,1.40
2023-05-11T10:14:52.014Z,4.50
2023-05-11T10:17:20.779Z,2.70
2023-05-11T10:19:48.997Z,6.70
2023-05-11T10:22:17.653Z,2.40
2023-05-11T10:24:44.576Z,1.40
2023-05-11T10:27:12.966Z,5.20
2023-05-11T10:29:40.020Z,3.40
2023-05-11T10:32:07.954Z,3.00
2023-05-11T10:34:34.708Z,3.90
2023-05-11T10:37:02.550Z,3.90
2023-05-11T10:39:30.504Z,3.10
2023-05-11T10:42:36.302Z,1.80
2023-05-11T10:45:36.006Z,5.00
2023-05-11T10:48:30.241Z,2.90
2023-05-11T10:51:17.333Z,4.20
2023-05-11T10:54:09.979Z,5.90
2023-05-11T10:56:54.845Z,2.80
2023-05-11T10:59:24.423Z,3.00
2023-05-11T11:04:20.556Z,5.20
2023-05-11T11:06:47.246Z,3.00
2023-05-11T11:09:16.236Z,4.00
2023-05-11T11:11:50.996Z,2.80
2023-05-11T11:14:19.628Z,2.30
2023-05-11T11:17:25.432Z,3.50
2023-05-11T11:19:52.257Z,2.50
2023-05-11T11:22:41.716Z,5.60
2023-05-11T11:25:09.691Z,5.00
2023-05-11T11:27:45.364Z,2.70
2023-05-11T11:30:25.491Z,4.10
2023-05-11T11:32:54.147Z,1.50
2023-05-11T11:35:39.296Z,1.90
2023-05-11T11:38:14.346Z,4.40
2023-05-11T11:40:51.157Z,5.50
2023-05-11T11:43:21.202Z,4.90
2023-05-11T11:46:03.192Z,9.00
2023-05-11T11:48:41.427Z,4.90
2023-05-11T11:51:13.178Z,5.20
2023-05-11T11:53:41.230Z,3.30
2023-05-11T11:56:13.963Z,3.90
2023-05-11T11:58:44.153Z,3.10
2023-05-11T12:01:14.760Z,5.10
2023-05-11T12:03:43.994Z,2.30
2023-05-11T12:06:12.062Z,3.00
2023-05-11T12:08:40.500Z,3.00
2023-05-11T12:11:08.001Z,2.90
2023-05-11T12:13:35.571Z,5.10
2023-05-11T12:16:14.498Z,2.20
2023-05-11T12:18:42.967Z,2.40
2023-05-11T12:21:23.592Z,1.50
2023-05-11T12:23:54.878Z,5.70
2023-05-11T12:26:23.521Z,5.70
2023-05-11T12:29:08.425Z,4.60
2023-05-11T12:31:39.524Z,2.00
2023-05-11T12:34:06.361Z,4.90
2023-05-11T12:36:34.456Z,2.00
2023-05-11T12:39:01.170Z,2.70
2023-05-11T12:41:28.070Z,7.10
2023-05-11T12:43:56.170Z,2.20
2023-05-11T12:46:23.582Z,2.80
2023-05-11T12:48:51.537Z,3.20
2023-05-11T12:51:42.110Z,2.10
2023-05-11T12:54:08.878Z,2.00
2023-05-11T12:56:48.798Z,3.30
2023-05-11T12:59:35.545Z,2.00
2023-05-11T13:02:16.005Z,6.30
2023-05-11T13:04:44.019Z,3.00
2023-05-11T13:07:11.756Z,3.70
2023-05-11T13:09:39.516Z,8.20
2023-05-11T13:12:20.852Z,4.20
2023-05-11T13:15:04.497Z,5.20
2023-05-11T13:17:32.596Z,1.90
2023-05-11T13:20:22.109Z,4.80
2023-05-11T13:22:49.762Z,3.60
2023-05-11T13:25:19.571Z,2.80
2023-05-11T13:27:46.518Z,10.30
2023-05-11T13:30:13.717Z,5.10
2023-05-11T13:32:40.458Z,2.10
2023-05-11T13:35:07.292Z,5.90
2023-05-11T13:37:33.878Z,4.80
2023-05-11T13:40:00.887Z,6.10
2023-05-11T13:42:28.500Z,7.30
2023-05-11T13:44:55.308Z,3.60
2023-05-11T13:47:22.194Z,5.30
2023-05-11T13:49:48.949Z,2.50
2023-05-11T13:52:15.922Z,3.70
2023-05-11T13:54:42.512Z,5.30
2023-05-11T13:57:09.203Z,5.70
2023-05-11T13:59:35.904Z,2.00
2023-05-11T14:02:02.607Z,3.90
2023-05-11T14:04:29.394Z,4.10
2023-05-11T14:06:56.102Z,3.20
2023-05-11T14:09:23.427Z,2.90
2023-05-11T14:11:50.664Z,1.80
2023-05-11T14:14:17.558Z,2.80
2023-05-11T14:16:44.249Z,5.40
2023-05-11T14:19:10.839Z,3.30
2023-05-11T14:21:37.886Z,3.40
2023-05-11T14:24:12.263Z,4.10
2023-05-11T14:26:40.233Z,5.40
2023-05-11T14:29:07.001Z,3.60
2023-05-11T14:31:34.907Z,2.30
2023-05-11T14:34:02.865Z,2.80
2023-05-11T14:36:29.886Z,7.10
2023-05-11T14:38:56.646Z,4.50
2023-05-11T14:41:23.544Z,4.80
2023-05-11T14:43:50.428Z,5.40
2023-05-11T14:46:17.810Z,5.00
2023-05-11T14:48:44.549Z,3.50
2023-05-11T14:51:11.200Z,8.60
2023-05-11T14:53:37.781Z,6.40
2023-05-11T14:56:04.605Z,4.40
2023-05-11T14:58:31.171Z,3.40
2023-05-11T15:00:57.892Z,4.30
2023-05-11T15:03:25.196Z,5.50
2023-05-11T15:05:52.054Z,6.70
2023-05-11T15:08:29.085Z,4.40
2023-05-11T15:10:57.549Z,5.00
2023-05-11T15:13:24.650Z,6.90
2023-05-11T15:15:51.778Z,4.70
2023-05-11T15:18:18.969Z,6.10
2023-05-11T15:20:46.162Z,5.10
2023-05-11T15:23:16.583Z,4.50
2023-05-11T15:25:44.700Z,5.20
2023-05-11T15:28:11.766Z,2.90
2023-05-11T15:30:38.701Z,7.50
2023-05-11T15:33:05.473Z,5.30
2023-05-11T15:35:34.655Z,2.10
2023-05-11T15:38:01.324Z,4.10
2023-05-11T15:40:31.047Z,10.00
2023-05-11T15:42:58.875Z,5.50
2023-05-11T15:45:26.358Z,2.90
2023-05-11T15:47:54.121Z,3.40
2023-05-11T15:50:21.139Z,8.60
2023-05-11T15:52:48.040Z,3.00
2023-05-11T15:55:14.839Z,5.30
2023-05-11T15:57:41.673Z,4.50
2023-05-11T16:00:10.617Z,3.80
2023-05-11T16:02:37.506Z,10.30
2023-05-11T16:05:04.636Z,7.60
2023-05-11T16:07:31.470Z,8.90
2023-05-11T16:09:58.049Z,2.10
2023-05-11T16:12:24.626Z,9.70
2023-05-11T16:14:51.281Z,2.50
2023-05-11T16:17:18.029Z,4.10
2023-05-11T16:19:44.773Z,9.60
2023-05-11T16:22:11.461Z,9.80
2023-05-11T16:24:39.050Z,4.90
2023-05-11T16:27:05.775Z,9.40
2023-05-11T16:29:32.491Z,7.70
2023-05-11T16:31:59.159Z,5.30
2023-05-11T16:34:26.958Z,6.10
2023-05-11T16:36:53.583Z,7.30
2023-05-11T16:39:20.251Z,6.40
2023-05-11T16:41:46.783Z,3.20
2023-05-11T16:44:13.352Z,5.50
2023-05-11T16:46:39.987Z,3.10
2023-05-11T16:49:06.645Z,7.50
2023-05-11T16:51:34.068Z,5.00
2023-05-11T16:54:00.890Z,7.30
2023-05-11T16:56:27.581Z,2.80
2023-05-11T16:58:54.197Z,4.10
2023-05-11T17:01:20.824Z,8.00
2023-05-11T17:03:47.721Z,2.90
2023-05-11T17:06:18.975Z,2.50
2023-05-11T17:08:46.842Z,4.50
2023-05-11T17:11:13.440Z,4.50
2023-05-11T17:13:40.091Z,2.20
2023-05-11T17:16:07.205Z,8.60
2023-05-11T17:18:33.889Z,11.00
2023-05-11T17:21:00.772Z,10.30
2023-05-11T17:23:27.593Z,4.40
2023-05-11T17:25:54.391Z,5.70
2023-05-11T17:28:22.279Z,6.60
2023-05-11T17:30:52.742Z,7.50
2023-05-11T17:33:19.715Z,13.40
2023-05-11T17:35:46.486Z,21.20
2023-05-11T17:38:13.105Z,21.60
2023-05-11T17:40:39.762Z,12.40
2023-05-11T17:43:08.735Z,9.10
2023-05-11T17:45:35.571Z,10.10
2023-05-11T17:48:02.280Z,12.10
2023-05-11T17:50:29.073Z,8.20
2023-05-11T17:52:55.591Z,9.90
2023-05-11T17:55:22.202Z,9.80
2023-05-11T17:57:51.427Z,8.20
2023-05-11T18:00:18.579Z,8.40
2023-05-11T18:02:51.190Z,11.60
2023-05-11T18:05:18.369Z,13.20
2023-05-11T18:07:44.956Z,11.50
2023-05-11T18:10:12.122Z,14.20
2023-05-11T18:12:38.718Z,12.70
2023-05-11T18:15:05.810Z,10.60
2023-05-11T18:17:32.786Z,15.00
2023-05-11T18:19:59.401Z,8.30
2023-05-11T18:22:25.971Z,9.40
2023-05-11T18:24:52.478Z,11.70
2023-05-11T18:27:19.112Z,11.00
2023-05-11T18:29:45.814Z,13.20
2023-05-11T18:32:12.442Z,11.70
2023-05-11T18:34:42.414Z,17.50
2023-05-11T18:39:36.190Z,10.80
2023-05-11T18:42:04.901Z,12.10
2023-05-11T18:44:32.142Z,10.00
2023-05-11T18:46:59.478Z,11.20
2023-05-11T18:49:26.271Z,10.00
2023-05-11T18:51:53.008Z,18.40
2023-05-11T18:54:19.681Z,14.90
2023-05-11T18:56:46.367Z,15.70
2023-05-11T18:59:12.916Z,19.70
2023-05-11T19:01:47.641Z,20.20
2023-05-11T19:04:17.655Z,20.00
2023-05-11T19:06:44.215Z,18.90
2023-05-11T19:09:10.794Z,18.30
2023-05-11T19:11:37.893Z,17.90
2023-05-11T19:14:04.676Z,19.90
2023-05-11T19:16:32.729Z,20.10
2023-05-11T19:18:59.694Z,24.00
2023-05-11T19:21:26.653Z,19.10
2023-05-11T19:23:53.451Z,20.40
2023-05-11T19:26:20.141Z,18.70
2023-05-11T19:28:46.733Z,12.20
2023-05-11T19:31:13.602Z,13.00
2023-05-11T19:33:40.517Z,13.40
2023-05-11T19:36:07.270Z,17.60
2023-05-11T19:38:35.895Z,14.30
2023-05-11T19:41:03.150Z,18.30
2023-05-11T19:43:29.852Z,18.00
2023-05-11T19:45:56.512Z,14.20
2023-05-11T19:48:23.293Z,12.60
2023-05-11T19:50:49.792Z,13.30
2023-05-11T19:53:16.578Z,9.50
2023-05-11T19:55:45.432Z,15.00
2023-05-11T19:58:13.982Z,13.10
2023-05-11T20:00:43.484Z,10.00
2023-05-11T20:03:10.306Z,14.70
2023-05-11T20:05:37.360Z,16.90
2023-05-11T20:08:06.159Z,13.30
2023-05-11T20:10:33.516Z,11.10
2023-05-11T20:13:03.804Z,11.90
2023-05-11T20:15:31.372Z,13.80
2023-05-11T20:17:58.028Z,11.90
2023-05-11T20:20:24.875Z,12.40
2023-05-11T20:22:52.400Z,16.30
2023-05-11T20:25:19.223Z,13.10
2023-05-11T20:27:46.570Z,12.00
2023-05-11T20:30:13.736Z,12.50
2023-05-11T20:35:28.027Z,10.70
2023-05-11T20:37:55.241Z,10.00
2023-05-11T20:40:22.198Z,11.00
2023-05-11T20:42:49.008Z,8.50
2023-05-11T20:45:15.812Z,16.50
2023-05-11T20:47:42.772Z,9.70
2023-05-11T20:50:10.233Z,9.10
2023-05-11T20:52:37.375Z,10.30
2023-05-11T20:55:04.602Z,13.30
2023-05-11T20:57:31.495Z,11.00
2023-05-11T21:02:27.721Z,9.90
2023-05-11T21:04:54.591Z,8.90
2023-05-11T21:07:23.056Z,9.00
2023-05-11T21:09:49.582Z,10.00
2023-05-11T21:12:16.323Z,8.40
2023-05-11T21:14:42.905Z,7.90
2023-05-11T21:17:09.604Z,11.30
2023-05-11T21:19:36.330Z,8.20
2023-05-11T21:22:03.180Z,9.50
2023-05-11T21:24:29.951Z,11.30
2023-05-11T21:26:56.907Z,10.60
2023-05-11T21:29:23.552Z,10.00
2023-05-11T21:31:50.279Z,10.80
2023-05-11T21:34:17.306Z,9.30
2023-05-11T21:36:45.637Z,7.90
2023-05-11T21:39:15.023Z,11.00
2023-05-11T21:41:42.022Z,9.70
2023-05-11T21:44:08.906Z,13.40
2023-05-11T21:46:35.661Z,10.40
2023-05-11T21:49:02.283Z,10.30
2023-05-11T21:51:28.979Z,9.50
2023-05-11T21:53:55.727Z,8.70
2023-05-11T21:56:23.452Z,11.10
2023-05-11T21:58:50.309Z,8.90
2023-05-11T22:01:17.182Z,7.40
2023-05-11T22:03:44.031Z,8.80
2023-05-11T22:06:11.091Z,8.40
2023-05-11T22:08:37.772Z,10.00
2023-05-11T22:11:04.607Z,11.30
2023-05-11T22:13:31.107Z,9.80
2023-05-11T22:15:57.776Z,7.50
2023-05-11T22:18:24.835Z,9.00
2023-05-11T22:20:51.472Z,8.70
2023-05-11T22:23:18.061Z,10.50
2023-05-11T22:25:44.585Z,8.00
2023-05-11T22:28:11.113Z,8.60
2023-05-11T22:30:37.745Z,8.70
2023-05-11T22:33:04.334Z,12.70
2023-05-11T22:35:31.043Z,10.60
2023-05-11T22:37:57.656Z,10.30
2023-05-11T22:40:24.169Z,8.90
2023-05-11T22:42:50.665Z,11.20
2023-05-11T22:45:17.329Z,8.70
2023-05-11T22:47:44.231Z,9.80
2023-05-11T22:50:12.070Z,11.80
2023-05-11T22:52:38.768Z,9.90
2023-05-11T22:55:05.921Z,8.60
2023-05-11T22:57:32.554Z,9.60
2023-05-11T22:59:59.166Z,10.40
2023-05-11T23:02:25.857Z,9.50
2023-05-11T23:04:53.059Z,11.70
2023-05-11T23:07:19.985Z,7.00
2023-05-11T23:09:46.902Z,10.20
2023-05-11T23:12:13.444Z,8.70
2023-05-11T23:14:39.952Z,10.30
2023-05-11T23:17:06.579Z,8.40
2023-05-11T23:19:33.734Z,7.80
2023-05-11T23:22:00.765Z,9.20
2023-05-11T23:24:28.862Z,10.00
2023-05-11T23:26:55.483Z,9.20
2023-05-11T23:29:22.069Z,11.50
2023-05-11T23:31:48.950Z,8.30
2023-05-11T23:34:15.740Z,7.40
2023-05-11T23:36:42.407Z,9.20
2023-05-11T23:39:09.565Z,7.20
2023-05-11T23:41:36.366Z,7.90
2023-05-11T23:44:03.272Z,6.90
2023-05-11T23:46:29.940Z,10.20
2023-05-11T23:48:56.428Z,9.00
2023-05-11T23:51:23.161Z,8.50
2023-05-11T23:53:49.947Z,7.70
2023-05-11T23:56:16.542Z,10.10
2023-05-11T23:58:45.664Z,8.10
